createdAt,value
2023-05-05T00:00:10.158Z,25.03
2023-05-05T00:01:10.155Z,24.25
2023-05-05T00:02:10.229Z,24.86
2023-05-05T00:03:10.318Z,24.70
2023-05-05T00:04:10.416Z,24.37
2023-05-05T00:05:10.309Z,24.42
2023-05-05T00:06:10.365Z,24.13
2023-05-05T00:07:10.374Z,23.88
2023-05-05T00:08:10.408Z,24.20
2023-05-05T00:09:10.432Z,24.06
2023-05-05T00:10:10.545Z,24.11
2023-05-05T00:11:10.498Z,23.86
2023-05-05T00:12:10.528Z,24.44
2023-05-05T00:13:10.695Z,24.15
2023-05-05T00:14:10.747Z,24.09
2023-05-05T00:15:10.650Z,24.12
2023-05-05T00:16:10.682Z,24.10
2023-05-05T00:17:10.783Z,23.74
2023-05-05T00:18:10.753Z,23.86
2023-05-05T00:19:11.192Z,23.92
2023-05-05T00:20:10.810Z,24.24
2023-05-05T00:21:10.870Z,24.09
2023-05-05T00:22:10.891Z,23.60
2023-05-05T00:23:10.920Z,23.87
2023-05-05T00:24:10.945Z,23.98
2023-05-05T00:25:10.993Z,23.23
2023-05-05T00:26:11.036Z,23.43
2023-05-05T00:27:11.087Z,23.60
2023-05-05T00:28:11.113Z,23.42
2023-05-05T00:29:11.143Z,23.10
2023-05-05T00:30:11.184Z,23.20
2023-05-05T00:31:11.246Z,22.58
2023-05-05T00:32:11.285Z,23.37
2023-05-05T00:33:11.310Z,23.25
2023-05-05T00:34:11.393Z,23.02
2023-05-05T00:35:11.389Z,22.87
2023-05-05T00:36:11.428Z,22.86
2023-05-05T00:37:11.419Z,23.35
2023-05-05T00:38:11.459Z,23.34
2023-05-05T00:39:11.537Z,22.82
2023-05-05T00:40:11.560Z,22.58
2023-05-05T00:41:11.571Z,23.02
2023-05-05T00:42:11.601Z,22.47
2023-05-05T00:43:11.662Z,22.50
2023-05-05T00:44:11.682Z,22.35
2023-05-05T00:45:11.730Z,22.67
2023-05-05T00:46:11.817Z,22.31
2023-05-05T00:47:11.832Z,21.96
2023-05-05T00:48:11.899Z,22.29
2023-05-05T00:49:11.938Z,22.02
2023-05-05T00:50:11.937Z,22.31
2023-05-05T00:51:11.965Z,22.02
2023-05-05T00:52:12.003Z,21.81
2023-05-05T00:53:12.045Z,21.70
2023-05-05T00:54:12.051Z,22.09
2023-05-05T00:55:12.186Z,21.89
2023-05-05T00:56:12.122Z,22.03
2023-05-05T00:57:12.175Z,22.21
2023-05-05T00:58:12.228Z,21.73
2023-05-05T00:59:12.299Z,21.92
2023-05-05T01:00:12.345Z,22.10
2023-05-05T01:01:12.437Z,21.82
2023-05-05T01:02:12.393Z,21.26
2023-05-05T01:03:12.480Z,21.46
2023-05-05T01:04:12.426Z,21.11
2023-05-05T01:05:12.585Z,21.40
2023-05-05T01:06:12.524Z,21.04
2023-05-05T01:07:12.571Z,21.13
2023-05-05T01:08:12.591Z,21.00
2023-05-05T01:09:12.629Z,20.90
2023-05-05T01:10:19.674Z,21.02
2023-05-05T01:11:13.666Z,21.05
2023-05-05T01:12:12.612Z,20.78
2023-05-05T01:13:12.779Z,21.13
2023-05-05T01:14:12.648Z,21.22
2023-05-05T01:15:12.604Z,21.15
2023-05-05T01:16:12.659Z,20.78
2023-05-05T01:17:12.595Z,21.25
2023-05-05T01:18:12.601Z,20.60
2023-05-05T01:19:12.597Z,20.79
2023-05-05T01:20:12.610Z,21.12
2023-05-05T01:21:12.652Z,21.01
2023-05-05T01:22:12.585Z,20.84
2023-05-05T01:23:12.606Z,20.42
2023-05-05T01:24:12.674Z,20.83
2023-05-05T01:25:12.675Z,20.04
2023-05-05T01:26:12.742Z,20.46
2023-05-05T01:27:12.711Z,19.70
2023-05-05T01:28:12.754Z,20.49
2023-05-05T01:29:12.799Z,20.22
2023-05-05T01:30:12.884Z,20.23
2023-05-05T01:31:13.011Z,19.62
2023-05-05T01:32:12.932Z,20.15
2023-05-05T01:33:12.960Z,19.98
2023-05-05T01:34:13.014Z,20.14
2023-05-05T01:35:13.051Z,20.01
2023-05-05T01:36:13.076Z,20.13
2023-05-05T01:37:13.172Z,20.63
2023-05-05T01:38:13.158Z,20.16
2023-05-05T01:39:13.198Z,20.10
2023-05-05T01:40:13.225Z,20.15
2023-05-05T01:41:13.223Z,19.52
2023-05-05T01:42:13.270Z,19.76
2023-05-05T01:43:13.301Z,20.06
2023-05-05T01:44:13.363Z,19.78
2023-05-05T01:45:13.380Z,19.82
2023-05-05T01:46:13.599Z,19.64
2023-05-05T01:47:13.471Z,19.66
2023-05-05T01:48:13.514Z,19.47
2023-05-05T01:49:13.510Z,19.57
2023-05-05T01:50:13.564Z,19.33
2023-05-05T01:51:13.620Z,18.98
2023-05-05T01:52:13.641Z,19.41
2023-05-05T01:53:13.680Z,19.42
2023-05-05T01:54:13.759Z,19.10
2023-05-05T01:55:13.760Z,19.31
2023-05-05T01:56:13.775Z,19.46
2023-05-05T01:57:13.809Z,19.23
2023-05-05T01:58:13.848Z,19.27
2023-05-05T01:59:13.913Z,18.79
2023-05-05T02:00:13.931Z,19.24
2023-05-05T02:01:14.013Z,19.29
2023-05-05T02:02:14.030Z,19.55
2023-05-05T02:03:14.095Z,18.56
2023-05-05T02:04:14.076Z,18.73
2023-05-05T02:05:14.141Z,18.45
2023-05-05T02:06:14.149Z,18.58
2023-05-05T02:07:14.210Z,18.92
2023-05-05T02:08:14.254Z,18.76
2023-05-05T02:09:14.228Z,18.95
2023-05-05T02:10:14.282Z,18.44
2023-05-05T02:11:14.337Z,18.74
2023-05-05T02:12:14.395Z,18.85
2023-05-05T02:13:14.454Z,18.45
2023-05-05T02:14:14.437Z,18.20
2023-05-05T02:15:14.489Z,18.25
2023-05-05T02:16:14.603Z,18.23
2023-05-05T02:17:14.528Z,18.62
2023-05-05T02:18:14.585Z,18.18
2023-05-05T02:19:14.610Z,18.26
2023-05-05T02:20:14.667Z,18.19
2023-05-05T02:21:14.694Z,18.28
2023-05-05T02:22:14.748Z,18.15
2023-05-05T02:23:14.778Z,17.90
2023-05-05T02:24:14.792Z,17.77
2023-05-05T02:25:14.845Z,17.83
2023-05-05T02:26:14.929Z,17.98
2023-05-05T02:27:14.920Z,17.49
2023-05-05T02:28:14.962Z,17.90
2023-05-05T02:29:14.998Z,17.77
2023-05-05T02:30:15.045Z,18.06
2023-05-05T02:31:15.125Z,17.57
2023-05-05T02:32:15.073Z,17.93
2023-05-05T02:33:15.157Z,17.65
2023-05-05T02:34:15.162Z,17.69
2023-05-05T02:35:15.223Z,17.25
2023-05-05T02:36:15.215Z,17.38
2023-05-05T02:37:15.324Z,17.46
2023-05-05T02:38:15.349Z,17.29
2023-05-05T02:39:15.372Z,17.32
2023-05-05T02:40:15.348Z,17.27
2023-05-05T02:41:15.415Z,17.30
2023-05-05T02:42:15.455Z,17.32
2023-05-05T02:43:15.537Z,17.50
2023-05-05T02:44:15.546Z,17.16
2023-05-05T02:45:15.587Z,17.68
2023-05-05T02:46:15.622Z,17.37
2023-05-05T02:47:15.687Z,17.21
2023-05-05T02:48:15.672Z,17.13
2023-05-05T02:49:15.727Z,17.21
2023-05-05T02:50:15.758Z,17.13
2023-05-05T02:51:15.820Z,17.22
2023-05-05T02:52:15.863Z,17.19
2023-05-05T02:53:15.896Z,17.26
2023-05-05T02:54:15.925Z,16.73
2023-05-05T02:55:15.973Z,16.97
2023-05-05T02:56:15.990Z,16.57
2023-05-05T02:57:16.078Z,16.83
2023-05-05T02:58:16.129Z,16.87
2023-05-05T02:59:16.538Z,16.78
2023-05-05T03:00:16.156Z,16.36
2023-05-05T03:01:16.241Z,16.64
2023-05-05T03:02:16.212Z,16.67
2023-05-05T03:03:16.404Z,16.72
2023-05-05T03:04:16.250Z,16.29
2023-05-05T03:05:16.320Z,16.43
2023-05-05T03:06:16.530Z,16.52
2023-05-05T03:07:16.398Z,16.52
2023-05-05T03:08:16.454Z,16.51
2023-05-05T03:09:16.457Z,16.45
2023-05-05T03:10:16.503Z,16.47
2023-05-05T03:11:16.532Z,16.02
2023-05-05T03:12:16.592Z,16.32
2023-05-05T03:13:16.646Z,16.27
2023-05-05T03:14:16.642Z,16.24
2023-05-05T03:15:16.719Z,16.22
2023-05-05T03:16:16.796Z,16.15
2023-05-05T03:17:16.800Z,16.11
2023-05-05T03:18:16.831Z,16.26
2023-05-05T03:19:16.862Z,16.13
2023-05-05T03:20:16.872Z,15.78
2023-05-05T03:21:16.982Z,15.98
2023-05-05T03:22:16.957Z,15.72
2023-05-05T03:23:17.037Z,16.35
2023-05-05T03:24:17.150Z,16.07
2023-05-05T03:25:17.082Z,15.92
2023-05-05T03:26:17.172Z,16.06
2023-05-05T03:27:17.161Z,15.64
2023-05-05T03:28:17.201Z,15.57
2023-05-05T03:29:17.297Z,15.73
2023-05-05T03:30:17.274Z,15.55
2023-05-05T03:31:17.385Z,15.54
2023-05-05T03:32:17.338Z,15.53
2023-05-05T03:33:17.413Z,15.45
2023-05-05T03:34:17.459Z,15.42
2023-05-05T03:35:17.441Z,15.59
2023-05-05T03:36:17.527Z,15.41
2023-05-05T03:37:17.538Z,15.41
2023-05-05T03:38:17.581Z,15.02
2023-05-05T03:39:17.645Z,15.50
2023-05-05T03:40:17.671Z,15.41
2023-05-05T03:41:17.700Z,15.57
2023-05-05T03:42:17.783Z,15.22
2023-05-05T03:43:17.834Z,15.31
2023-05-05T03:44:17.814Z,15.14
2023-05-05T03:45:17.922Z,15.07
2023-05-05T03:46:18.034Z,15.18
2023-05-05T03:47:17.960Z,15.28
2023-05-05T03:48:18.004Z,15.20
2023-05-05T03:49:18.043Z,14.95
2023-05-05T03:50:18.074Z,14.83
2023-05-05T03:51:18.144Z,14.79
2023-05-05T03:52:18.167Z,14.81
2023-05-05T03:53:18.192Z,14.80
2023-05-05T03:54:18.258Z,14.66
2023-05-05T03:55:18.274Z,14.96
2023-05-05T03:56:18.320Z,14.89
2023-05-05T03:57:18.361Z,14.58
2023-05-05T03:58:18.393Z,14.72
2023-05-05T03:59:18.449Z,14.67
2023-05-05T04:00:18.527Z,14.71
2023-05-05T04:01:18.533Z,14.72
2023-05-05T04:02:18.990Z,14.72
2023-05-05T04:03:18.744Z,14.53
2023-05-05T04:04:18.679Z,14.26
2023-05-05T04:05:18.682Z,13.47
2023-05-05T04:06:18.723Z,12.94
2023-05-05T04:07:18.759Z,12.15
2023-05-05T04:08:18.785Z,11.69
2023-05-05T04:09:18.826Z,10.98
2023-05-05T04:10:18.890Z,10.63
2023-05-05T04:11:18.897Z,10.28
2023-05-05T04:12:18.915Z,9.56
2023-05-05T04:13:18.937Z,9.00
2023-05-05T04:14:19.071Z,8.51
2023-05-05T04:15:19.045Z,8.04
2023-05-05T04:16:19.132Z,7.61
2023-05-05T04:17:19.111Z,7.28
2023-05-05T04:18:19.156Z,7.13
2023-05-05T04:19:19.194Z,6.74
2023-05-05T04:20:19.234Z,6.31
2023-05-05T04:21:19.236Z,6.26
2023-05-05T04:22:19.357Z,6.02
2023-05-05T04:23:19.326Z,5.82
2023-05-05T04:24:19.389Z,5.65
2023-05-05T04:25:19.538Z,5.53
2023-05-05T04:26:19.440Z,5.40
2023-05-05T04:27:19.519Z,5.24
2023-05-05T04:28:21.588Z,5.11
2023-05-05T04:29:19.578Z,5.10
2023-05-05T04:30:19.684Z,4.97
2023-05-05T04:31:19.744Z,4.78
2023-05-05T04:32:19.767Z,4.93
2023-05-05T04:33:19.853Z,4.94
2023-05-05T04:34:19.872Z,4.98
2023-05-05T04:35:19.886Z,5.17
2023-05-05T04:36:19.943Z,5.12
2023-05-05T04:37:20.005Z,5.24
2023-05-05T04:38:20.135Z,5.25
2023-05-05T04:39:20.117Z,5.20
2023-05-05T04:40:20.233Z,5.37
2023-05-05T04:41:20.362Z,5.61
2023-05-05T04:42:20.333Z,5.58
2023-05-05T04:43:20.367Z,5.67
2023-05-05T04:44:20.413Z,5.55
2023-05-05T04:45:20.530Z,5.76
2023-05-05T04:46:20.674Z,5.71
2023-05-05T04:47:20.571Z,5.77
2023-05-05T04:48:20.638Z,5.77
2023-05-05T04:49:20.683Z,5.87
2023-05-05T04:50:20.746Z,5.80
2023-05-05T04:51:20.823Z,6.00
2023-05-05T04:52:20.845Z,6.04
2023-05-05T04:53:20.924Z,6.10
2023-05-05T04:54:20.962Z,6.14
2023-05-05T04:55:21.009Z,6.06
2023-05-05T04:56:21.108Z,6.31
2023-05-05T04:57:21.080Z,6.26
2023-05-05T04:58:21.160Z,6.30
2023-05-05T04:59:21.201Z,6.31
2023-05-05T05:00:21.247Z,6.35
2023-05-05T05:01:21.317Z,6.38
2023-05-05T05:02:21.467Z,6.40
2023-05-05T05:03:21.499Z,6.51
2023-05-05T05:04:21.470Z,6.56
2023-05-05T05:05:21.485Z,6.44
2023-05-05T05:06:21.523Z,6.58
2023-05-05T05:07:21.588Z,6.46
2023-05-05T05:08:21.648Z,6.53
2023-05-05T05:09:21.705Z,6.58
2023-05-05T05:10:21.703Z,6.50
2023-05-05T05:11:21.766Z,6.55
2023-05-05T05:12:21.804Z,6.74
2023-05-05T05:13:21.922Z,6.57
2023-05-05T05:14:21.886Z,6.73
2023-05-05T05:15:21.947Z,6.60
2023-05-05T05:16:21.992Z,6.56
2023-05-05T05:18:19.715Z,0.50
2023-05-05T05:19:19.664Z,0.50
2023-05-05T05:20:19.699Z,0.50
2023-05-05T05:21:19.666Z,0.50
2023-05-05T05:22:19.673Z,0.50
2023-05-05T05:23:19.695Z,0.51
2023-05-05T05:24:19.745Z,0.52
2023-05-05T05:25:19.813Z,0.51
2023-05-05T05:26:19.814Z,0.51
2023-05-05T05:27:19.879Z,0.50
2023-05-05T05:28:19.941Z,0.50
2023-05-05T05:29:19.974Z,0.51
2023-05-05T05:30:20.006Z,0.50
2023-05-05T05:31:20.064Z,0.50
2023-05-05T05:32:20.127Z,0.51
2023-05-05T05:33:20.183Z,0.52
2023-05-05T05:34:20.203Z,0.52
2023-05-05T05:35:20.229Z,0.50
2023-05-05T05:36:20.259Z,0.51
2023-05-05T05:37:20.361Z,0.50
2023-05-05T05:38:20.379Z,0.50
2023-05-05T05:39:20.421Z,0.51
2023-05-05T05:40:20.423Z,0.53
2023-05-05T05:41:20.427Z,0.54
2023-05-05T05:42:20.906Z,0.51
2023-05-05T05:43:20.511Z,0.51
2023-05-05T05:44:20.583Z,0.51
2023-05-05T05:45:20.674Z,0.54
2023-05-05T05:46:20.788Z,0.55
2023-05-05T05:47:20.746Z,0.57
2023-05-05T05:48:20.831Z,0.57
2023-05-05T05:49:20.895Z,0.60
2023-05-05T05:50:20.942Z,0.65
2023-05-05T05:51:21.001Z,0.70
2023-05-05T05:52:21.058Z,0.70
2023-05-05T05:53:21.118Z,0.73
2023-05-05T05:54:21.435Z,0.74
2023-05-05T05:55:21.171Z,0.77
2023-05-05T05:56:21.167Z,0.79
2023-05-05T05:57:21.431Z,0.83
2023-05-05T05:58:21.173Z,0.84
2023-05-05T05:59:21.159Z,0.88
2023-05-05T06:00:21.143Z,0.89
2023-05-05T06:01:21.202Z,0.90
2023-05-05T06:02:21.335Z,0.94
2023-05-05T06:03:21.469Z,0.94
2023-05-05T06:04:21.467Z,0.97
2023-05-05T06:05:21.466Z,0.99
2023-05-05T06:06:21.480Z,1.02
2023-05-05T06:07:21.567Z,1.02
2023-05-05T06:08:23.055Z,1.02
2023-05-05T06:09:21.598Z,1.06
2023-05-05T06:10:27.893Z,1.09
2023-05-05T06:11:22.567Z,1.10
2023-05-05T06:12:21.584Z,1.10
2023-05-05T06:13:21.599Z,1.12
2023-05-05T06:14:21.586Z,1.16
2023-05-05T06:15:21.542Z,1.22
2023-05-05T06:16:21.602Z,1.21
2023-05-05T06:17:21.546Z,1.27
2023-05-05T06:18:21.610Z,1.28
2023-05-05T06:19:21.552Z,1.28
2023-05-05T06:20:21.538Z,1.23
2023-05-05T06:21:21.884Z,1.26
2023-05-05T06:22:21.533Z,1.26
2023-05-05T06:23:21.530Z,1.23
2023-05-05T06:24:21.548Z,1.24
2023-05-05T06:25:21.547Z,1.26
2023-05-05T06:26:21.555Z,1.24
2023-05-05T06:27:21.565Z,1.22
2023-05-05T06:28:21.893Z,1.24
2023-05-05T06:29:21.622Z,1.24
2023-05-05T06:30:21.914Z,1.22
2023-05-05T06:31:21.711Z,1.25
2023-05-05T06:32:21.726Z,1.23
2023-05-05T06:33:21.707Z,1.22
2023-05-05T06:34:21.711Z,1.13
2023-05-05T06:35:21.759Z,0.99
2023-05-05T06:36:21.801Z,0.90
2023-05-05T06:37:21.846Z,0.88
2023-05-05T06:38:21.832Z,0.89
2023-05-05T06:39:21.887Z,0.86
2023-05-05T06:40:22.415Z,0.82
2023-05-05T06:41:21.986Z,0.75
2023-05-05T06:42:21.976Z,0.72
2023-05-05T06:43:22.129Z,0.67
2023-05-05T06:44:22.112Z,0.68
2023-05-05T06:45:22.215Z,0.66
2023-05-05T06:46:22.291Z,0.64
2023-05-05T06:47:22.268Z,0.62
2023-05-05T06:48:22.335Z,0.59
2023-05-05T06:49:22.387Z,0.58
2023-05-05T06:50:22.431Z,0.56
2023-05-05T06:51:22.484Z,0.55
2023-05-05T06:52:22.925Z,0.56
2023-05-05T06:53:22.931Z,0.54
2023-05-05T06:54:22.631Z,0.53
2023-05-05T06:55:22.920Z,0.54
2023-05-05T06:56:22.887Z,0.54
2023-05-05T06:57:22.827Z,0.50
2023-05-05T06:58:22.892Z,0.50
2023-05-05T06:59:22.955Z,0.51
2023-05-05T07:00:23.074Z,0.51
2023-05-05T07:01:23.095Z,0.51
2023-05-05T07:02:24.088Z,0.50
2023-05-05T07:03:23.235Z,0.50
2023-05-05T07:04:23.398Z,0.52
2023-05-05T07:05:23.109Z,0.51
2023-05-05T07:06:23.119Z,0.51
2023-05-05T07:07:23.075Z,0.50
2023-05-05T07:08:23.432Z,0.50
2023-05-05T07:09:23.088Z,0.52
2023-05-05T07:10:23.042Z,0.54
2023-05-05T07:11:23.101Z,0.57
2023-05-05T07:12:23.036Z,0.57
2023-05-05T07:13:23.413Z,0.56
2023-05-05T07:14:24.368Z,0.58
2023-05-05T07:15:27.406Z,0.59
2023-05-05T07:16:24.155Z,0.58
2023-05-05T07:17:23.132Z,0.60
2023-05-05T07:18:23.079Z,0.60
2023-05-05T07:19:23.005Z,0.59
2023-05-05T07:20:23.004Z,0.59
2023-05-05T07:21:23.007Z,0.59
2023-05-05T07:22:23.022Z,0.60
2023-05-05T07:23:22.981Z,0.59
2023-05-05T07:24:23.012Z,0.61
2023-05-05T07:25:22.998Z,0.59
2023-05-05T07:26:23.025Z,0.58
2023-05-05T07:27:23.018Z,0.58
2023-05-05T07:28:23.450Z,0.58
2023-05-05T07:29:23.124Z,0.58
2023-05-05T07:30:23.383Z,0.57
2023-05-05T07:31:23.165Z,0.55
2023-05-05T07:32:23.372Z,0.51
2023-05-05T07:33:23.249Z,0.50
2023-05-05T07:34:23.309Z,0.50
2023-05-05T07:35:23.410Z,0.48
2023-05-05T07:36:23.431Z,0.50
2023-05-05T07:37:23.486Z,0.51
2023-05-05T07:38:23.950Z,0.51
2023-05-05T07:39:24.015Z,0.51
2023-05-05T07:40:23.974Z,0.51
2023-05-05T07:41:23.503Z,0.51
2023-05-05T07:42:23.526Z,0.51
2023-05-05T07:43:23.515Z,0.49
2023-05-05T07:44:23.921Z,0.48
2023-05-05T07:45:23.935Z,0.53
2023-05-05T07:46:23.585Z,0.55
2023-05-05T07:47:23.565Z,0.56
2023-05-05T07:48:23.770Z,0.53
2023-05-05T07:49:23.692Z,0.54
2023-05-05T07:50:23.915Z,0.55
2023-05-05T07:51:23.794Z,0.56
2023-05-05T07:52:37.365Z,0.55
2023-05-05T07:53:24.843Z,0.55
2023-05-05T07:54:23.835Z,0.55
2023-05-05T07:55:23.828Z,0.55
2023-05-05T07:56:23.851Z,0.56
2023-05-05T07:57:23.827Z,0.59
2023-05-05T07:58:24.491Z,0.58
2023-05-05T07:59:23.843Z,0.54
2023-05-05T08:00:23.850Z,0.53
2023-05-05T08:01:23.799Z,0.54
2023-05-05T08:02:23.934Z,0.51
2023-05-05T08:03:23.948Z,0.49
2023-05-05T08:04:23.962Z,0.53
2023-05-05T08:05:23.893Z,0.50
2023-05-05T08:06:23.920Z,0.50
2023-05-05T08:07:23.998Z,0.51
2023-05-05T08:08:24.059Z,0.51
2023-05-05T08:09:24.050Z,0.53
2023-05-05T08:10:24.179Z,0.52
2023-05-05T08:11:24.133Z,0.51
2023-05-05T08:12:24.168Z,0.50
2023-05-05T08:13:24.189Z,0.51
2023-05-05T08:14:24.231Z,0.51
2023-05-05T08:15:24.251Z,0.52
2023-05-05T08:16:24.310Z,0.51
2023-05-05T08:17:24.292Z,0.50
2023-05-05T08:18:24.320Z,0.50
2023-05-05T08:19:29.280Z,0.51
2023-05-05T08:20:25.521Z,0.49
2023-05-05T08:21:24.312Z,0.51
2023-05-05T08:22:24.283Z,0.47
2023-05-05T08:23:24.303Z,0.44
2023-05-05T08:24:24.304Z,0.46
2023-05-05T08:25:24.323Z,0.50
2023-05-05T08:26:24.318Z,0.51
2023-05-05T08:27:24.289Z,0.53
2023-05-05T08:28:24.280Z,0.50
2023-05-05T08:29:24.434Z,0.50
2023-05-05T08:30:24.332Z,0.43
2023-05-05T08:31:24.330Z,0.40
2023-05-05T08:32:24.265Z,0.45
2023-05-05T08:33:24.260Z,0.50
2023-05-05T08:34:24.281Z,0.50
2023-05-05T08:35:24.272Z,0.50
2023-05-05T08:36:24.467Z,0.50
2023-05-05T08:37:24.444Z,0.50
2023-05-05T08:38:24.404Z,0.50
2023-05-05T08:39:24.464Z,0.52
2023-05-05T08:40:24.523Z,0.96
2023-05-05T08:41:24.564Z,1.05
2023-05-05T08:42:36.252Z,1.06
2023-05-05T08:43:26.315Z,0.99
2023-05-05T08:44:24.639Z,0.89
2023-05-05T08:45:24.580Z,0.85
2023-05-05T08:46:24.943Z,0.85
2023-05-05T08:47:24.681Z,0.92
2023-05-05T08:48:24.609Z,0.90
2023-05-05T08:49:24.571Z,0.79
2023-05-05T08:50:24.541Z,0.79
2023-05-05T08:51:24.584Z,0.83
2023-05-05T08:52:24.778Z,0.70
2023-05-05T08:53:24.540Z,0.59
2023-05-05T08:54:24.942Z,0.57
2023-05-05T08:55:24.574Z,0.57
2023-05-05T08:56:24.608Z,0.50
2023-05-05T08:57:24.586Z,0.51
2023-05-05T08:58:25.948Z,0.58
2023-05-05T08:59:24.643Z,0.49
2023-05-05T09:00:24.702Z,0.59
2023-05-05T09:01:24.791Z,0.53
2023-05-05T09:02:24.842Z,0.57
2023-05-05T09:03:24.936Z,0.55
2023-05-05T09:04:24.934Z,0.50
2023-05-05T09:05:25.022Z,0.52
2023-05-05T09:06:25.028Z,0.57
2023-05-05T09:07:25.060Z,0.50
2023-05-05T09:08:25.290Z,0.56
2023-05-05T09:09:25.179Z,0.65
2023-05-05T09:10:25.251Z,0.68
2023-05-05T09:11:25.300Z,0.73
2023-05-05T09:12:25.467Z,0.84
2023-05-05T09:13:25.398Z,0.88
2023-05-05T09:14:25.428Z,0.97
2023-05-05T09:15:25.491Z,1.08
2023-05-05T09:16:25.584Z,0.97
2023-05-05T09:17:25.688Z,1.01
2023-05-05T09:18:25.930Z,0.69
2023-05-05T09:19:25.943Z,0.66
2023-05-05T09:20:26.012Z,0.50
2023-05-05T09:21:25.698Z,0.46
2023-05-05T09:22:25.771Z,0.48
2023-05-05T09:23:25.940Z,0.48
2023-05-05T09:24:25.887Z,0.47
2023-05-05T09:25:25.822Z,0.52
2023-05-05T09:26:25.860Z,0.55
2023-05-05T09:27:26.012Z,0.59
2023-05-05T09:28:25.886Z,0.54
2023-05-05T09:29:25.878Z,0.60
2023-05-05T09:30:25.900Z,0.62
2023-05-05T09:31:26.112Z,0.72
2023-05-05T09:32:26.573Z,0.75
2023-05-05T09:33:25.961Z,0.79
2023-05-05T09:34:25.957Z,0.78
2023-05-05T09:35:26.034Z,0.80
2023-05-05T09:36:26.474Z,0.87
2023-05-05T09:37:26.050Z,0.86
2023-05-05T09:38:26.461Z,1.31
2023-05-05T09:39:26.139Z,1.72
2023-05-05T09:40:26.213Z,2.00
2023-05-05T09:41:26.198Z,2.48
2023-05-05T09:42:26.200Z,2.59
2023-05-05T09:43:26.269Z,2.33
2023-05-05T09:44:26.274Z,1.42
2023-05-05T09:45:26.281Z,0.91
2023-05-05T09:46:26.314Z,0.77
2023-05-05T09:47:29.822Z,0.79
2023-05-05T09:48:26.421Z,0.88
2023-05-05T09:49:26.301Z,0.84
2023-05-05T09:50:26.315Z,0.85
2023-05-05T09:51:26.346Z,0.72
2023-05-05T09:52:26.274Z,0.56
2023-05-05T09:53:26.476Z,0.61
2023-05-05T09:54:26.281Z,0.75
2023-05-05T09:55:26.263Z,0.73
2023-05-05T09:56:26.289Z,0.72
2023-05-05T09:57:26.264Z,0.62
2023-05-05T09:58:26.369Z,0.68
2023-05-05T09:59:26.319Z,0.72
2023-05-05T10:00:26.239Z,0.86
2023-05-05T10:01:26.252Z,0.70
2023-05-05T10:02:26.273Z,0.70
2023-05-05T10:03:26.220Z,0.73
2023-05-05T10:04:26.243Z,0.83
2023-05-05T10:05:26.275Z,0.87
2023-05-05T10:06:26.196Z,1.06
2023-05-05T10:07:26.189Z,1.12
2023-05-05T10:08:26.154Z,0.97
2023-05-05T10:09:26.174Z,0.71
2023-05-05T10:10:28.569Z,0.54
2023-05-05T10:11:26.180Z,0.51
2023-05-05T10:12:26.159Z,0.55
2023-05-05T10:13:26.150Z,0.57
2023-05-05T10:14:26.124Z,0.60
2023-05-05T10:15:26.101Z,0.73
2023-05-05T10:16:27.523Z,0.78
2023-05-05T10:17:26.221Z,0.78
2023-05-05T10:18:26.212Z,0.79
2023-05-05T10:19:26.141Z,0.85
2023-05-05T10:20:26.110Z,0.92
2023-05-05T10:21:26.097Z,0.86
2023-05-05T10:22:26.986Z,0.60
2023-05-05T10:23:26.123Z,0.61
2023-05-05T10:24:26.063Z,0.72
2023-05-05T10:25:26.075Z,0.94
2023-05-05T10:26:26.039Z,0.99
2023-05-05T10:27:26.049Z,1.14
2023-05-05T10:28:26.125Z,1.44
2023-05-05T10:29:26.072Z,1.59
2023-05-05T10:30:26.056Z,2.11
2023-05-05T10:31:26.893Z,2.29
2023-05-05T10:32:50.230Z,2.50
2023-05-05T10:33:32.149Z,2.29
2023-05-05T10:34:27.070Z,2.45
2023-05-05T10:35:26.010Z,2.36
2023-05-05T10:36:26.019Z,2.00
2023-05-05T10:37:26.487Z,1.80
2023-05-05T10:38:26.800Z,1.28
2023-05-05T10:39:25.975Z,0.88
2023-05-05T10:40:25.952Z,0.86
2023-05-05T10:41:25.988Z,0.82
2023-05-05T10:42:25.956Z,0.99
2023-05-05T10:43:25.971Z,0.88
2023-05-05T10:44:26.069Z,0.82
2023-05-05T10:45:26.035Z,0.84
2023-05-05T10:46:25.996Z,0.73
2023-05-05T10:47:25.950Z,0.69
2023-05-05T10:48:25.927Z,0.77
2023-05-05T10:49:25.894Z,0.69
2023-05-05T10:50:25.910Z,0.56
2023-05-05T10:51:35.947Z,0.56
2023-05-05T10:52:26.878Z,0.52
2023-05-05T10:53:25.899Z,0.40
2023-05-05T10:54:25.926Z,0.41
2023-05-05T10:55:25.977Z,0.38
2023-05-05T10:56:25.866Z,0.34
2023-05-05T10:57:25.993Z,0.36
2023-05-05T10:58:25.818Z,0.50
2023-05-05T10:59:25.831Z,0.58
2023-05-05T11:00:25.994Z,0.59
2023-05-05T11:01:25.924Z,0.80
2023-05-05T11:02:26.064Z,0.88
2023-05-05T11:03:25.902Z,0.97
2023-05-05T11:04:25.809Z,1.18
2023-05-05T11:05:25.802Z,1.09
2023-05-05T11:06:25.849Z,1.03
2023-05-05T11:07:25.903Z,0.97
2023-05-05T11:08:25.928Z,0.90
2023-05-05T11:09:25.977Z,0.92
2023-05-05T11:10:25.996Z,0.98
2023-05-05T11:11:26.002Z,1.09
2023-05-05T11:12:26.053Z,1.03
2023-05-05T11:13:26.098Z,1.12
2023-05-05T11:14:26.497Z,1.11
2023-05-05T11:15:26.158Z,1.11
2023-05-05T11:16:26.274Z,1.16
2023-05-05T11:17:26.182Z,1.11
2023-05-05T11:18:26.210Z,1.24
2023-05-05T11:19:26.491Z,1.14
2023-05-05T11:20:26.226Z,1.16
2023-05-05T11:21:26.507Z,1.12
2023-05-05T11:22:26.332Z,1.13
2023-05-05T11:23:26.298Z,1.09
2023-05-05T11:24:26.385Z,1.14
2023-05-05T11:25:26.353Z,1.10
2023-05-05T11:26:26.371Z,1.01
2023-05-05T11:27:26.363Z,0.99
2023-05-05T11:28:26.374Z,1.01
2023-05-05T11:29:26.452Z,0.88
2023-05-05T11:30:26.406Z,0.90
2023-05-05T11:31:26.442Z,0.88
2023-05-05T11:32:26.537Z,0.87
2023-05-05T11:33:26.485Z,0.88
2023-05-05T11:34:27.041Z,0.93
2023-05-05T11:35:26.492Z,0.89
2023-05-05T11:36:26.528Z,0.87
2023-05-05T11:37:26.500Z,0.90
2023-05-05T11:38:26.517Z,0.88
2023-05-05T11:39:26.595Z,0.85
2023-05-05T11:40:26.555Z,0.84
2023-05-05T11:41:26.574Z,0.86
2023-05-05T11:42:26.668Z,0.83
2023-05-05T11:43:26.611Z,0.83
2023-05-05T11:44:26.651Z,0.77
2023-05-05T11:45:26.644Z,0.79
2023-05-05T11:46:26.697Z,0.76
2023-05-05T11:47:26.732Z,0.78
2023-05-05T11:48:26.845Z,0.82
2023-05-05T11:49:26.703Z,0.89
2023-05-05T11:50:26.728Z,0.97
2023-05-05T11:51:26.705Z,1.08
2023-05-05T11:52:26.692Z,1.18
2023-05-05T11:53:26.681Z,1.29
2023-05-05T11:54:26.710Z,1.42
2023-05-05T11:55:26.699Z,1.55
2023-05-05T11:56:26.713Z,1.79
2023-05-05T11:57:26.712Z,1.93
2023-05-05T11:58:26.676Z,2.09
2023-05-05T11:59:26.677Z,2.31
2023-05-05T12:00:26.673Z,2.46
2023-05-05T12:01:26.745Z,2.78
2023-05-05T12:02:26.813Z,3.03
2023-05-05T12:03:27.093Z,3.22
2023-05-05T12:04:26.880Z,3.49
2023-05-05T12:05:26.897Z,3.87
2023-05-05T12:06:26.982Z,4.12
2023-05-05T12:07:27.034Z,4.43
2023-05-05T12:08:27.062Z,4.71
2023-05-05T12:09:27.119Z,5.08
2023-05-05T12:10:27.172Z,5.29
2023-05-05T12:11:27.232Z,5.85
2023-05-05T12:12:27.316Z,6.02
2023-05-05T12:13:27.417Z,6.37
2023-05-05T12:14:27.413Z,6.75
2023-05-05T12:15:27.472Z,6.93
2023-05-05T12:16:27.566Z,7.48
2023-05-05T12:17:27.598Z,7.78
2023-05-05T12:18:27.642Z,8.19
2023-05-05T12:19:27.745Z,8.38
2023-05-05T12:20:27.816Z,8.98
2023-05-05T12:21:27.826Z,9.72
2023-05-05T12:22:27.933Z,9.90
2023-05-05T12:23:27.916Z,9.83
2023-05-05T12:24:28.027Z,10.20
2023-05-05T12:25:28.038Z,10.93
2023-05-05T12:26:28.133Z,11.39
2023-05-05T12:27:28.161Z,11.71
2023-05-05T12:28:28.292Z,12.30
2023-05-05T12:29:28.256Z,12.75
2023-05-05T12:30:28.363Z,13.46
2023-05-05T12:31:28.421Z,13.49
2023-05-05T12:32:28.457Z,13.59
2023-05-05T12:33:28.556Z,14.17
2023-05-05T12:34:28.558Z,15.01
2023-05-05T12:35:28.598Z,15.42
2023-05-05T12:36:30.488Z,15.62
2023-05-05T12:37:28.727Z,15.37
2023-05-05T12:38:28.736Z,15.74
2023-05-05T12:39:28.793Z,15.99
2023-05-05T12:40:28.855Z,16.33
2023-05-05T12:41:28.934Z,16.48
2023-05-05T12:42:28.966Z,17.00
2023-05-05T12:43:29.060Z,17.82
2023-05-05T12:44:29.040Z,17.92
2023-05-05T12:45:29.089Z,18.61
2023-05-05T12:46:29.252Z,18.01
2023-05-05T12:47:29.171Z,17.66
2023-05-05T12:48:29.239Z,18.87
2023-05-05T12:49:29.242Z,19.43
2023-05-05T12:50:29.341Z,19.07
2023-05-05T12:51:29.330Z,18.57
2023-05-05T12:52:29.423Z,19.86
2023-05-05T12:53:29.417Z,20.09
2023-05-05T12:54:29.450Z,21.42
2023-05-05T12:55:29.528Z,21.59
2023-05-05T12:56:29.551Z,21.83
2023-05-05T12:57:29.552Z,22.66
2023-05-05T12:58:29.598Z,21.52
2023-05-05T12:59:29.644Z,22.36
2023-05-05T13:00:29.709Z,21.88
2023-05-05T13:01:29.786Z,22.27
2023-05-05T13:02:29.815Z,22.68
2023-05-05T13:03:29.934Z,23.04
2023-05-05T13:04:29.823Z,22.90
2023-05-05T13:05:29.848Z,23.11
2023-05-05T13:06:29.891Z,22.04
2023-05-05T13:07:29.931Z,22.99
2023-05-05T13:08:29.962Z,23.08
2023-05-05T13:09:30.030Z,23.15